sensor_id;sensor_type;location;lat;lon;timestamp;pressure;altitude;pressure_sealevel;temperature;humidity
49843;BME280;55559;48.898;9.184;2022-12-11T00:00:37;97839.44;;;-2.46;100.00
49843;BME280;55559;48.898;9.184;2022-12-11T00:03:04;97835.88;;;-2.45;100.00
49843;BME280;55559;48.898;9.184;2022-12-11T00:05:32;97834.16;;;-2.44;100.00
49843;BME280;55559;48.898;9.184;2022-12-11T00:08:00;97845.88;;;-2.35;100.00
49843;BME280;55559;48.898;9.184;2022-12-11T00:10:28;97840.97;;;-2.41;100.00
49843;BME280;55559;48.898;9.184;2022-12-11T00:12:56;97834.22;;;-2.46;100.00
49843;BME280;55559;48.898;9.184;2022-12-11T00:15:24;97837.03;;;-2.50;100.00
49843;BME280;55559;48.898;9.184;2022-12-11T00:17:51;97843.25;;;-2.53;100.00
49843;BME280;55559;48.898;9.184;2022-12-11T00:20:19;97832.44;;;-2.45;100.00
49843;BME280;55559;48.898;9.184;2022-12-11T00:22:46;97834.28;;;-2.47;100.00
49843;BME280;55559;48.898;9.184;2022-12-11T00:25:13;97831.97;;;-2.53;100.00
49843;BME280;55559;48.898;9.184;2022-12-11T00:27:44;97837.97;;;-2.51;100.00
49843;BME280;55559;48.898;9.184;2022-12-11T00:30:12;97836.53;;;-2.58;100.00
49843;BME280;55559;48.898;9.184;2022-12-11T00:32:40;97842.81;;;-2.63;100.00
49843;BME280;55559;48.898;9.184;2022-12-11T00:35:09;97838.50;;;-2.64;100.00
49843;BME280;55559;48.898;9.184;2022-12-11T00:37:36;97842.50;;;-2.56;100.00
49843;BME280;55559;48.898;9.184;2022-12-11T00:40:05;97838.78;;;-2.51;100.00
49843;BME280;55559;48.898;9.184;2022-12-11T00:42:32;97838.28;;;-2.40;100.00
49843;BME280;55559;48.898;9.184;2022-12-11T00:45:02;97836.94;;;-2.30;100.00
49843;BME280;55559;48.898;9.184;2022-12-11T00:47:29;97829.69;;;-2.23;100.00
49843;BME280;55559;48.898;9.184;2022-12-11T00:49:57;97832.22;;;-2.21;100.00
49843;BME280;55559;48.898;9.184;2022-12-11T00:52:25;97828.56;;;-2.17;100.00
49843;BME280;55559;48.898;9.184;2022-12-11T00:54:53;97828.09;;;-2.08;100.00
49843;BME280;55559;48.898;9.184;2022-12-11T00:57:22;97820.44;;;-2.11;100.00
49843;BME280;55559;48.898;9.184;2022-12-11T00:59:49;97822.81;;;-2.07;100.00
49843;BME280;55559;48.898;9.184;2022-12-11T01:02:18;97831.06;;;-1.97;100.00
49843;BME280;55559;48.898;9.184;2022-12-11T01:04:46;97830.22;;;-1.97;100.00
49843;BME280;55559;48.898;9.184;2022-12-11T01:07:13;97834.28;;;-1.92;100.00
49843;BME280;55559;48.898;9.184;2022-12-11T01:09:41;97826.47;;;-1.92;100.00
49843;BME280;55559;48.898;9.184;2022-12-11T01:12:26;97834.81;;;-1.85;100.00
49843;BME280;55559;48.898;9.184;2022-12-11T01:14:53;97836.41;;;-1.82;100.00
49843;BME280;55559;48.898;9.184;2022-12-11T01:17:22;97849.44;;;-1.82;100.00
49843;BME280;55559;48.898;9.184;2022-12-11T01:19:52;97849.16;;;-1.76;100.00
49843;BME280;55559;48.898;9.184;2022-12-11T01:22:20;97853.53;;;-1.77;100.00
49843;BME280;55559;48.898;9.184;2022-12-11T01:24:47;97851.75;;;-1.76;100.00
49843;BME280;55559;48.898;9.184;2022-12-11T01:27:15;97849.84;;;-1.73;100.00
49843;BME280;55559;48.898;9.184;2022-12-11T01:29:42;97853.41;;;-1.74;100.00
49843;BME280;55559;48.898;9.184;2022-12-11T01:32:10;97853.22;;;-1.71;100.00
49843;BME280;55559;48.898;9.184;2022-12-11T01:34:39;97846.69;;;-1.79;100.00
49843;BME280;55559;48.898;9.184;2022-12-11T01:37:06;97845.19;;;-1.66;100.00
49843;BME280;55559;48.898;9.184;2022-12-11T01:39:35;97846.34;;;-1.72;100.00
49843;BME280;55559;48.898;9.184;2022-12-11T01:42:03;97848.25;;;-1.75;100.00
49843;BME280;55559;48.898;9.184;2022-12-11T01:47:53;97851.22;;;-1.83;100.00
49843;BME280;55559;48.898;9.184;2022-12-11T01:50:23;97848.47;;;-1.80;100.00
49843;BME280;55559;48.898;9.184;2022-12-11T01:52:51;97855.59;;;-1.83;100.00
49843;BME280;55559;48.898;9.184;2022-12-11T01:55:20;97855.28;;;-1.77;100.00
49843;BME280;55559;48.898;9.184;2022-12-11T01:57:48;97862.25;;;-1.78;100.00
49843;BME280;55559;48.898;9.184;2022-12-11T02:00:17;97866.31;;;-1.72;100.00
49843;BME280;55559;48.898;9.184;2022-12-11T02:02:45;97861.84;;;-1.69;100.00
49843;BME280;55559;48.898;9.184;2022-12-11T02:05:13;97862.38;;;-1.62;100.00
49843;BME280;55559;48.898;9.184;2022-12-11T02:07:44;97862.38;;;-1.62;100.00
49843;BME280;55559;48.898;9.184;2022-12-11T02:10:13;97862.28;;;-1.60;100.00
49843;BME280;55559;48.898;9.184;2022-12-11T02:12:51;97867.66;;;-1.63;100.00
49843;BME280;55559;48.898;9.184;2022-12-11T02:15:28;97870.97;;;-1.60;100.00
49843;BME280;55559;48.898;9.184;2022-12-11T02:18:04;97878.16;;;-1.47;100.00
49843;BME280;55559;48.898;9.184;2022-12-11T02:20:36;97869.34;;;-1.45;100.00
49843;BME280;55559;48.898;9.184;2022-12-11T02:23:36;97873.72;;;-1.45;100.00
49843;BME280;55559;48.898;9.184;2022-12-11T02:26:20;97872.19;;;-1.50;100.00
49843;BME280;55559;48.898;9.184;2022-12-11T02:28:54;97855.53;;;-1.47;100.00
49843;BME280;55559;48.898;9.184;2022-12-11T02:31:26;97852.69;;;-1.42;100.00
49843;BME280;55559;48.898;9.184;2022-12-11T02:34:00;97852.47;;;-1.38;100.00
49843;BME280;55559;48.898;9.184;2022-12-11T02:36:30;97857.22;;;-1.28;100.00
49843;BME280;55559;48.898;9.184;2022-12-11T02:39:00;97858.97;;;-1.29;100.00
49843;BME280;55559;48.898;9.184;2022-12-11T02:41:31;97847.78;;;-1.31;100.00
49843;BME280;55559;48.898;9.184;2022-12-11T02:44:02;97855.47;;;-1.28;100.00
49843;BME280;55559;48.898;9.184;2022-12-11T02:46:32;97860.00;;;-1.32;100.00
49843;BME280;55559;48.898;9.184;2022-12-11T02:49:02;97859.13;;;-1.32;100.00
49843;BME280;55559;48.898;9.184;2022-12-11T02:51:34;97859.59;;;-1.24;100.00
49843;BME280;55559;48.898;9.184;2022-12-11T02:54:06;97857.28;;;-1.30;100.00
49843;BME280;55559;48.898;9.184;2022-12-11T02:56:39;97860.69;;;-1.28;100.00
49843;BME280;55559;48.898;9.184;2022-12-11T02:59:14;97858.84;;;-1.26;100.00
49843;BME280;55559;48.898;9.184;2022-12-11T03:01:44;97865.56;;;-1.22;100.00
49843;BME280;55559;48.898;9.184;2022-12-11T03:04:12;97855.66;;;-1.15;100.00
49843;BME280;55559;48.898;9.184;2022-12-11T03:06:43;97860.34;;;-1.22;100.00
49843;BME280;55559;48.898;9.184;2022-12-11T03:09:12;97859.75;;;-1.27;100.00
49843;BME280;55559;48.898;9.184;2022-12-11T03:11:40;97850.94;;;-1.24;100.00
49843;BME280;55559;48.898;9.184;2022-12-11T03:14:08;97861.97;;;-1.19;100.00
49843;BME280;55559;48.898;9.184;2022-12-11T03:16:38;97854.59;;;-1.28;100.00
49843;BME280;55559;48.898;9.184;2022-12-11T03:19:12;97855.63;;;-1.31;100.00
49843;BME280;55559;48.898;9.184;2022-12-11T03:21:45;97853.53;;;-1.24;100.00
49843;BME280;55559;48.898;9.184;2022-12-11T03:24:18;97853.63;;;-1.26;100.00
49843;BME280;55559;48.898;9.184;2022-12-11T03:26:52;97851.31;;;-1.32;100.00
49843;BME280;55559;48.898;9.184;2022-12-11T03:29:24;97856.44;;;-1.31;100.00
49843;BME280;55559;48.898;9.184;2022-12-11T03:31:57;97857.28;;;-1.30;100.00
49843;BME280;55559;48.898;9.184;2022-12-11T03:34:29;97855.75;;;-1.34;100.00
49843;BME280;55559;48.898;9.184;2022-12-11T03:36:59;97860.38;;;-1.39;100.00
49843;BME280;55559;48.898;9.184;2022-12-11T03:39:30;97856.94;;;-1.40;100.00
49843;BME280;55559;48.898;9.184;2022-12-11T03:42:00;97848.56;;;-1.29;100.00
49843;BME280;55559;48.898;9.184;2022-12-11T03:44:30;97853.00;;;-1.31;100.00
49843;BME280;55559;48.898;9.184;2022-12-11T03:47:01;97849.47;;;-1.30;100.00
49843;BME280;55559;48.898;9.184;2022-12-11T03:49:33;97847.41;;;-1.41;100.00
49843;BME280;55559;48.898;9.184;2022-12-11T03:52:02;97850.09;;;-1.42;100.00
49843;BME280;55559;48.898;9.184;2022-12-11T03:54:30;97850.78;;;-1.39;100.00
49843;BME280;55559;48.898;9.184;2022-12-11T03:57:01;97847.88;;;-1.33;100.00
49843;BME280;55559;48.898;9.184;2022-12-11T03:59:30;97844.44;;;-1.33;100.00
49843;BME280;55559;48.898;9.184;2022-12-11T04:01:58;97844.44;;;-1.33;100.00
49843;BME280;55559;48.898;9.184;2022-12-11T04:04:26;97838.28;;;-1.32;100.00
49843;BME280;55559;48.898;9.184;2022-12-11T04:06:54;97838.41;;;-1.35;100.00
49843;BME280;55559;48.898;9.184;2022-12-11T04:09:21;97828.06;;;-1.37;100.00
49843;BME280;55559;48.898;9.184;2022-12-11T04:11:49;97833.47;;;-1.40;100.00
49843;BME280;55559;48.898;9.184;2022-12-11T04:14:16;97833.47;;;-1.40;100.00
49843;BME280;55559;48.898;9.184;2022-12-11T04:17:01;97831.69;;;-1.39;100.00
49843;BME280;55559;48.898;9.184;2022-12-11T04:19:30;97824.00;;;-1.42;100.00
49843;BME280;55559;48.898;9.184;2022-12-11T04:22:16;97816.25;;;-1.44;100.00
49843;BME280;55559;48.898;9.184;2022-12-11T04:25:02;97811.28;;;-1.48;100.00
49843;BME280;55559;48.898;9.184;2022-12-11T04:27:30;97810.28;;;-1.46;100.00
49843;BME280;55559;48.898;9.184;2022-12-11T04:30:17;97814.81;;;-1.50;100.00
49843;BME280;55559;48.898;9.184;2022-12-11T04:32:45;97821.69;;;-1.48;100.00
49843;BME280;55559;48.898;9.184;2022-12-11T04:35:14;97817.97;;;-1.43;100.00
49843;BME280;55559;48.898;9.184;2022-12-11T04:37:42;97832.69;;;-1.59;100.00
49843;BME280;55559;48.898;9.184;2022-12-11T04:40:12;97838.50;;;-1.72;100.00
49843;BME280;55559;48.898;9.184;2022-12-11T04:42:40;97836.88;;;-1.74;100.00
49843;BME280;55559;48.898;9.184;2022-12-11T04:45:09;97825.84;;;-1.79;100.00
49843;BME280;55559;48.898;9.184;2022-12-11T04:47:38;97826.78;;;-1.80;100.00
49843;BME280;55559;48.898;9.184;2022-12-11T04:50:08;97829.28;;;-1.79;100.00
49843;BME280;55559;48.898;9.184;2022-12-11T04:52:37;97828.22;;;-1.75;100.00
49843;BME280;55559;48.898;9.184;2022-12-11T04:55:05;97827.53;;;-1.78;100.00
49843;BME280;55559;48.898;9.184;2022-12-11T04:57:33;97826.84;;;-1.82;100.00
49843;BME280;55559;48.898;9.184;2022-12-11T05:00:01;97824.31;;;-1.83;100.00
49843;BME280;55559;48.898;9.184;2022-12-11T05:02:29;97824.75;;;-1.93;100.00
49843;BME280;55559;48.898;9.184;2022-12-11T05:04:56;97836.34;;;-1.98;100.00
49843;BME280;55559;48.898;9.184;2022-12-11T05:07:24;97831.88;;;-1.96;100.00
49843;BME280;55559;48.898;9.184;2022-12-11T05:09:53;97834.47;;;-2.14;100.00
49843;BME280;55559;48.898;9.184;2022-12-11T05:12:20;97828.63;;;-2.19;100.00
49843;BME280;55559;48.898;9.184;2022-12-11T05:14:50;97837.19;;;-2.34;100.00
49843;BME280;55559;48.898;9.184;2022-12-11T05:17:18;97850.34;;;-2.37;100.00
49843;BME280;55559;48.898;9.184;2022-12-11T05:19:46;97849.56;;;-2.39;100.00
49843;BME280;55559;48.898;9.184;2022-12-11T05:22:15;97854.91;;;-2.42;100.00
49843;BME280;55559;48.898;9.184;2022-12-11T05:24:44;97846.47;;;-2.48;100.00
49843;BME280;55559;48.898;9.184;2022-12-11T05:27:13;97844.78;;;-2.49;100.00
49843;BME280;55559;48.898;9.184;2022-12-11T05:29:40;97845.84;;;-2.53;100.00
49843;BME280;55559;48.898;9.184;2022-12-11T05:32:08;97836.47;;;-2.57;100.00
49843;BME280;55559;48.898;9.184;2022-12-11T05:34:35;97839.13;;;-2.58;100.00
49843;BME280;55559;48.898;9.184;2022-12-11T05:37:03;97840.34;;;-2.66;100.00
49843;BME280;55559;48.898;9.184;2022-12-11T05:39:30;97837.94;;;-2.70;100.00
49843;BME280;55559;48.898;9.184;2022-12-11T05:41:58;97839.19;;;-2.79;100.00
49843;BME280;55559;48.898;9.184;2022-12-11T05:44:27;97833.44;;;-2.86;100.00
49843;BME280;55559;48.898;9.184;2022-12-11T05:46:54;97834.31;;;-2.87;100.00
49843;BME280;55559;48.898;9.184;2022-12-11T05:49:22;97829.28;;;-2.90;100.00
49843;BME280;55559;48.898;9.184;2022-12-11T05:51:49;97829.34;;;-2.91;100.00
49843;BME280;55559;48.898;9.184;2022-12-11T05:54:17;97828.84;;;-3.00;100.00
49843;BME280;55559;48.898;9.184;2022-12-11T05:56:45;97824.78;;;-3.05;100.00
49843;BME280;55559;48.898;9.184;2022-12-11T05:59:12;97820.53;;;-3.08;100.00
49843;BME280;55559;48.898;9.184;2022-12-11T06:01:42;97811.97;;;-3.10;100.00
49843;BME280;55559;48.898;9.184;2022-12-11T06:04:10;97818.19;;;-3.14;100.00
49843;BME280;55559;48.898;9.184;2022-12-11T06:06:38;97808.66;;;-3.13;100.00
49843;BME280;55559;48.898;9.184;2022-12-11T06:09:06;97806.00;;;-3.12;100.00
49843;BME280;55559;48.898;9.184;2022-12-11T06:11:34;97802.53;;;-3.12;100.00
49843;BME280;55559;48.898;9.184;2022-12-11T06:14:02;97811.31;;;-3.15;100.00
49843;BME280;55559;48.898;9.184;2022-12-11T06:16:33;97806.97;;;-3.14;100.00
49843;BME280;55559;48.898;9.184;2022-12-11T06:19:02;97803.59;;;-3.16;100.00
49843;BME280;55559;48.898;9.184;2022-12-11T06:21:30;97809.63;;;-3.16;100.00
49843;BME280;55559;48.898;9.184;2022-12-11T06:24:00;97807.09;;;-3.18;100.00
49843;BME280;55559;48.898;9.184;2022-12-11T06:26:28;97810.31;;;-3.12;100.00
49843;BME280;55559;48.898;9.184;2022-12-11T06:28:56;97807.34;;;-3.03;100.00
49843;BME280;55559;48.898;9.184;2022-12-11T06:31:24;97800.22;;;-3.00;100.00
49843;BME280;55559;48.898;9.184;2022-12-11T06:33:51;97800.09;;;-2.96;100.00
49843;BME280;55559;48.898;9.184;2022-12-11T06:36:21;97798.91;;;-2.89;100.00
49843;BME280;55559;48.898;9.184;2022-12-11T06:38:49;97795.25;;;-2.85;100.00
49843;BME280;55559;48.898;9.184;2022-12-11T06:41:17;97799.28;;;-2.78;100.00
49843;BME280;55559;48.898;9.184;2022-12-11T06:43:45;97803.53;;;-2.77;100.00
49843;BME280;55559;48.898;9.184;2022-12-11T06:46:13;97810.66;;;-2.81;100.00
49843;BME280;55559;48.898;9.184;2022-12-11T06:48:43;97806.84;;;-2.73;100.00
49843;BME280;55559;48.898;9.184;2022-12-11T06:51:13;97802.19;;;-2.67;100.00
49843;BME280;55559;48.898;9.184;2022-12-11T06:53:42;97815.63;;;-2.57;100.00
49843;BME280;55559;48.898;9.184;2022-12-11T06:56:12;97814.22;;;-2.45;100.00
49843;BME280;55559;48.898;9.184;2022-12-11T06:58:41;97817.25;;;-2.35;100.00
49843;BME280;55559;48.898;9.184;2022-12-11T07:01:14;97808.41;;;-2.14;100.00
49843;BME280;55559;48.898;9.184;2022-12-11T07:03:43;97816.09;;;-2.11;100.00
49843;BME280;55559;48.898;9.184;2022-12-11T07:06:10;97816.84;;;-2.09;100.00
49843;BME280;55559;48.898;9.184;2022-12-11T07:08:38;97829.34;;;-1.98;100.00
49843;BME280;55559;48.898;9.184;2022-12-11T07:11:08;97826.59;;;-1.95;100.00
49843;BME280;55559;48.898;9.184;2022-12-11T07:13:36;97826.38;;;-1.90;100.00
49843;BME280;55559;48.898;9.184;2022-12-11T07:16:04;97824.69;;;-1.91;100.00
49843;BME280;55559;48.898;9.184;2022-12-11T07:18:37;97817.56;;;-1.88;100.00
49843;BME280;55559;48.898;9.184;2022-12-11T07:21:05;97829.47;;;-1.82;100.00
49843;BME280;55559;48.898;9.184;2022-12-11T07:23:33;97827.22;;;-1.90;100.00
49843;BME280;55559;48.898;9.184;2022-12-11T07:26:03;97820.47;;;-1.94;100.00
49843;BME280;55559;48.898;9.184;2022-12-11T07:28:33;97821.56;;;-1.80;100.00
49843;BME280;55559;48.898;9.184;2022-12-11T07:31:04;97822.25;;;-1.77;100.00
49843;BME280;55559;48.898;9.184;2022-12-11T07:33:34;97827.06;;;-1.69;100.00
49843;BME280;55559;48.898;9.184;2022-12-11T07:36:02;97826.72;;;-1.61;100.00
49843;BME280;55559;48.898;9.184;2022-12-11T07:38:30;97822.41;;;-1.62;100.00
49843;BME280;55559;48.898;9.184;2022-12-11T07:40:59;97820.56;;;-1.60;100.00
49843;BME280;55559;48.898;9.184;2022-12-11T07:43:27;97823.63;;;-1.70;100.00
49843;BME280;55559;48.898;9.184;2022-12-11T07:45:59;97828.03;;;-1.70;100.00
49843;BME280;55559;48.898;9.184;2022-12-11T07:48:27;97832.69;;;-1.59;100.00
49843;BME280;55559;48.898;9.184;2022-12-11T07:50:55;97827.47;;;-1.59;100.00
49843;BME280;55559;48.898;9.184;2022-12-11T07:53:22;97835.22;;;-1.58;100.00
49843;BME280;55559;48.898;9.184;2022-12-11T07:55:50;97829.94;;;-1.56;100.00
49843;BME280;55559;48.898;9.184;2022-12-11T07:58:17;97828.56;;;-1.63;100.00
49843;BME280;55559;48.898;9.184;2022-12-11T08:00:45;97836.59;;;-1.68;100.00
49843;BME280;55559;48.898;9.184;2022-12-11T08:03:15;97825.63;;;-1.57;100.00
49843;BME280;55559;48.898;9.184;2022-12-11T08:05:46;97830.84;;;-1.57;100.00
49843;BME280;55559;48.898;9.184;2022-12-11T08:08:14;97835.97;;;-1.56;100.00
49843;BME280;55559;48.898;9.184;2022-12-11T08:10:41;97831.53;;;-1.71;100.00
49843;BME280;55559;48.898;9.184;2022-12-11T08:13:09;97832.38;;;-1.71;100.00
49843;BME280;55559;48.898;9.184;2022-12-11T08:15:37;97826.03;;;-1.65;100.00
49843;BME280;55559;48.898;9.184;2022-12-11T08:18:04;97818.81;;;-1.60;100.00
49843;BME280;55559;48.898;9.184;2022-12-11T08:20:33;97822.03;;;-1.55;100.00
49843;BME280;55559;48.898;9.184;2022-12-11T08:23:01;97817.81;;;-1.57;100.00
49843;BME280;55559;48.898;9.184;2022-12-11T08:25:28;97830.69;;;-1.54;100.00
49843;BME280;55559;48.898;9.184;2022-12-11T08:27:56;97823.00;;;-1.57;100.00
49843;BME280;55559;48.898;9.184;2022-12-11T08:30:23;97822.88;;;-1.54;100.00
49843;BME280;55559;48.898;9.184;2022-12-11T08:32:51;97821.31;;;-1.41;100.00
49843;BME280;55559;48.898;9.184;2022-12-11T08:35:18;97827.84;;;-1.15;100.00
49843;BME280;55559;48.898;9.184;2022-12-11T08:37:47;97821.84;;;-0.83;100.00
49843;BME280;55559;48.898;9.184;2022-12-11T08:40:15;97818.69;;;-0.90;100.00
49843;BME280;55559;48.898;9.184;2022-12-11T08:42:42;97819.75;;;-0.77;100.00
49843;BME280;55559;48.898;9.184;2022-12-11T08:45:10;97811.50;;;-0.69;100.00
49843;BME280;55559;48.898;9.184;2022-12-11T08:47:38;97821.00;;;-0.68;100.00
49843;BME280;55559;48.898;9.184;2022-12-11T08:50:05;97818.41;;;-0.68;100.00
49843;BME280;55559;48.898;9.184;2022-12-11T08:52:33;97815.72;;;-0.66;100.00
49843;BME280;55559;48.898;9.184;2022-12-11T08:55:03;97819.00;;;-0.63;100.00
49843;BME280;55559;48.898;9.184;2022-12-11T08:57:31;97822.78;;;-0.52;100.00
49843;BME280;55559;48.898;9.184;2022-12-11T08:59:58;97817.56;;;-0.52;100.00
49843;BME280;55559;48.898;9.184;2022-12-11T09:02:25;97817.69;;;-0.54;100.00
49843;BME280;55559;48.898;9.184;2022-12-11T09:04:53;97811.59;;;-0.54;100.00
49843;BME280;55559;48.898;9.184;2022-12-11T09:07:20;97810.44;;;-0.49;100.00
49843;BME280;55559;48.898;9.184;2022-12-11T09:09:47;97810.59;;;-0.52;100.00
49843;BME280;55559;48.898;9.184;2022-12-11T09:12:16;97805.88;;;-0.45;100.00
49843;BME280;55559;48.898;9.184;2022-12-11T09:14:44;97812.53;;;-0.55;100.00
49843;BME280;55559;48.898;9.184;2022-12-11T09:17:11;97810.50;;;-0.34;100.00
49843;BME280;55559;48.898;9.184;2022-12-11T09:19:39;97807.22;;;-0.38;100.00
49843;BME280;55559;48.898;9.184;2022-12-11T09:22:06;97803.00;;;-0.41;100.00
49843;BME280;55559;48.898;9.184;2022-12-11T09:24:36;97804.88;;;-0.27;100.00
49843;BME280;55559;48.898;9.184;2022-12-11T09:27:03;97808.47;;;-0.13;100.00
49843;BME280;55559;48.898;9.184;2022-12-11T09:29:32;97809.56;;;-0.17;100.00
49843;BME280;55559;48.898;9.184;2022-12-11T09:32:00;97809.47;;;-0.16;100.00
49843;BME280;55559;48.898;9.184;2022-12-11T09:34:27;97805.59;;;-0.09;100.00
49843;BME280;55559;48.898;9.184;2022-12-11T09:36:54;97806.25;;;-0.05;100.00
49843;BME280;55559;48.898;9.184;2022-12-11T09:39:22;97807.03;;;-0.03;100.00
49843;BME280;55559;48.898;9.184;2022-12-11T09:41:55;97805.66;;;-0.10;100.00
49843;BME280;55559;48.898;9.184;2022-12-11T09:44:38;97798.31;;;-0.04;100.00
49843;BME280;55559;48.898;9.184;2022-12-11T09:47:17;97799.19;;;-0.03;100.00
49843;BME280;55559;48.898;9.184;2022-12-11T09:49:48;97795.19;;;0.06;100.00
49843;BME280;55559;48.898;9.184;2022-12-11T09:52:18;97794.97;;;-0.06;100.00
49843;BME280;55559;48.898;9.184;2022-12-11T09:54:48;97794.84;;;-0.18;100.00
49843;BME280;55559;48.898;9.184;2022-12-11T09:57:26;97788.28;;;0.05;100.00
49843;BME280;55559;48.898;9.184;2022-12-11T10:00:15;97781.66;;;-0.17;100.00
49843;BME280;55559;48.898;9.184;2022-12-11T10:03:14;97787.81;;;-0.18;100.00
49843;BME280;55559;48.898;9.184;2022-12-11T10:05:49;97789.53;;;-0.33;100.00
49843;BME280;55559;48.898;9.184;2022-12-11T10:08:28;97791.72;;;-0.25;100.00
49843;BME280;55559;48.898;9.184;2022-12-11T10:11:07;97787.66;;;-0.31;100.00
49843;BME280;55559;48.898;9.184;2022-12-11T10:13:48;97778.91;;;-0.30;100.00
49843;BME280;55559;48.898;9.184;2022-12-11T10:16:33;97781.59;;;-0.31;100.00
49843;BME280;55559;48.898;9.184;2022-12-11T10:19:02;97785.78;;;-0.13;100.00
49843;BME280;55559;48.898;9.184;2022-12-11T10:21:37;97777.94;;;-0.13;100.00
49843;BME280;55559;48.898;9.184;2022-12-11T10:24:11;97774.88;;;-0.05;100.00
49843;BME280;55559;48.898;9.184;2022-12-11T10:26:41;97769.53;;;-0.34;100.00
49843;BME280;55559;48.898;9.184;2022-12-11T10:29:13;97764.63;;;-0.08;100.00
49843;BME280;55559;48.898;9.184;2022-12-11T10:31:48;97756.00;;;0.06;100.00
49843;BME280;55559;48.898;9.184;2022-12-11T10:34:22;97748.94;;;0.22;100.00
49843;BME280;55559;48.898;9.184;2022-12-11T10:36:53;97750.28;;;-0.01;100.00
49843;BME280;55559;48.898;9.184;2022-12-11T10:39:21;97752.81;;;0.01;100.00
49843;BME280;55559;48.898;9.184;2022-12-11T10:41:50;97747.16;;;0.23;100.00
49843;BME280;55559;48.898;9.184;2022-12-11T10:44:19;97747.69;;;0.13;100.00
49843;BME280;55559;48.898;9.184;2022-12-11T10:47:02;97749.06;;;0.35;100.00
49843;BME280;55559;48.898;9.184;2022-12-11T10:49:32;97751.09;;;0.30;100.00
49843;BME280;55559;48.898;9.184;2022-12-11T10:52:00;97739.47;;;0.35;100.00
49843;BME280;55559;48.898;9.184;2022-12-11T10:54:31;97741.44;;;0.16;100.00
49843;BME280;55559;48.898;9.184;2022-12-11T10:57:01;97737.59;;;0.38;100.00
49843;BME280;55559;48.898;9.184;2022-12-11T10:59:33;97727.56;;;0.30;100.00
49843;BME280;55559;48.898;9.184;2022-12-11T11:02:06;97737.56;;;-0.07;100.00
49843;BME280;55559;48.898;9.184;2022-12-11T11:04:43;97720.81;;;-0.19;100.00
49843;BME280;55559;48.898;9.184;2022-12-11T11:07:12;97734.28;;;0.20;100.00
49843;BME280;55559;48.898;9.184;2022-12-11T11:09:40;97728.81;;;0.08;100.00
49843;BME280;55559;48.898;9.184;2022-12-11T11:12:18;97723.03;;;0.03;100.00
49843;BME280;55559;48.898;9.184;2022-12-11T11:14:57;97722.22;;;0.17;100.00
49843;BME280;55559;48.898;9.184;2022-12-11T11:17:26;97720.97;;;0.08;100.00
49843;BME280;55559;48.898;9.184;2022-12-11T11:19:54;97714.31;;;0.33;100.00
49843;BME280;55559;48.898;9.184;2022-12-11T11:22:23;97717.13;;;0.59;100.00
49843;BME280;55559;48.898;9.184;2022-12-11T11:24:54;97714.13;;;0.50;100.00
49843;BME280;55559;48.898;9.184;2022-12-11T11:27:28;97705.16;;;0.40;100.00
49843;BME280;55559;48.898;9.184;2022-12-11T11:29:59;97708.44;;;0.58;100.00
49843;BME280;55559;48.898;9.184;2022-12-11T11:32:32;97704.78;;;0.61;100.00
49843;BME280;55559;48.898;9.184;2022-12-11T11:35:17;97697.41;;;0.67;100.00
49843;BME280;55559;48.898;9.184;2022-12-11T11:37:46;97700.03;;;0.82;100.00
49843;BME280;55559;48.898;9.184;2022-12-11T11:40:24;97701.34;;;0.74;100.00
49843;BME280;55559;48.898;9.184;2022-12-11T11:43:02;97699.22;;;0.81;100.00
49843;BME280;55559;48.898;9.184;2022-12-11T11:45:36;97695.19;;;0.61;100.00
49843;BME280;55559;48.898;9.184;2022-12-11T11:48:20;97695.19;;;0.32;100.00
49843;BME280;55559;48.898;9.184;2022-12-11T11:50:51;97700.22;;;0.79;100.00
49843;BME280;55559;48.898;9.184;2022-12-11T11:53:23;97703.03;;;0.90;100.00
49843;BME280;55559;48.898;9.184;2022-12-11T11:56:01;97700.97;;;0.95;100.00
49843;BME280;55559;48.898;9.184;2022-12-11T11:58:37;97699.44;;;1.05;100.00
49843;BME280;55559;48.898;9.184;2022-12-11T12:01:11;97693.41;;;0.47;100.00
49843;BME280;55559;48.898;9.184;2022-12-11T12:03:42;97693.88;;;0.40;100.00
49843;BME280;55559;48.898;9.184;2022-12-11T12:06:15;97703.38;;;0.26;100.00
49843;BME280;55559;48.898;9.184;2022-12-11T12:08:51;97700.03;;;0.24;100.00
49843;BME280;55559;48.898;9.184;2022-12-11T12:11:27;97696.09;;;0.17;100.00
49843;BME280;55559;48.898;9.184;2022-12-11T12:14:04;97684.41;;;0.23;100.00
49843;BME280;55559;48.898;9.184;2022-12-11T12:16:40;97701.66;;;0.11;100.00
49843;BME280;55559;48.898;9.184;2022-12-11T12:19:28;97690.94;;;0.30;100.00
49843;BME280;55559;48.898;9.184;2022-12-11T12:22:13;97694.03;;;0.22;100.00
49843;BME280;55559;48.898;9.184;2022-12-11T12:24:50;97695.34;;;0.29;100.00
49843;BME280;55559;48.898;9.184;2022-12-11T12:27:27;97696.56;;;0.38;100.00
49843;BME280;55559;48.898;9.184;2022-12-11T12:30:02;97691.59;;;0.33;100.00
49843;BME280;55559;48.898;9.184;2022-12-11T12:32:36;97691.53;;;0.21;100.00
49843;BME280;55559;48.898;9.184;2022-12-11T12:35:17;97693.28;;;-0.10;100.00
49843;BME280;55559;48.898;9.184;2022-12-11T12:37:56;97693.53;;;-0.29;100.00
49843;BME280;55559;48.898;9.184;2022-12-11T12:40:30;97690.19;;;-0.17;100.00
49843;BME280;55559;48.898;9.184;2022-12-11T12:43:05;97687.59;;;-0.17;100.00
49843;BME280;55559;48.898;9.184;2022-12-11T12:45:43;97687.38;;;0.02;100.00
49843;BME280;55559;48.898;9.184;2022-12-11T12:48:17;97683.53;;;-0.07;100.00
49843;BME280;55559;48.898;9.184;2022-12-11T12:50:48;97684.66;;;0.04;100.00
49843;BME280;55559;48.898;9.184;2022-12-11T12:53:18;97673.91;;;-0.06;100.00
49843;BME280;55559;48.898;9.184;2022-12-11T12:55:47;97672.78;;;-0.02;100.00
49843;BME280;55559;48.898;9.184;2022-12-11T12:58:28;97675.22;;;0.01;100.00
49843;BME280;55559;48.898;9.184;2022-12-11T13:01:06;97662.25;;;-0.01;100.00
49843;BME280;55559;48.898;9.184;2022-12-11T13:03:35;97661.84;;;-0.09;100.00
49843;BME280;55559;48.898;9.184;2022-12-11T13:06:07;97664.84;;;-0.01;100.00
49843;BME280;55559;48.898;9.184;2022-12-11T13:08:38;97671.38;;;-0.08;100.00
49843;BME280;55559;48.898;9.184;2022-12-11T13:11:08;97666.84;;;0.10;100.00
49843;BME280;55559;48.898;9.184;2022-12-11T13:13:38;97673.44;;;0.02;100.00